Time;durP1;ratioP1;P1;durP2;ratioP2;P2;SDS_P1;SDS_P2;PMS_P1;PMS_P2;Temp;Humidity;BMP_temperature;BMP_pressure;BME280_temperature;BME280_humidity;BME280_pressure;Samples;Min_cycle;Max_cycle;Signal;HPM_P1;HPM_P2
2022/10/04 00:02:32;;;;;;;12.37;3.20;;;13.90;1.00;;;;;;5056106;28;20536;-84
2022/10/04 00:05:05;;;;;;;15.20;3.60;;;13.90;1.00;;;;;;5045538;28;20465;-85
2022/10/04 00:07:35;;;;;;;9.40;3.33;;;13.90;1.00;;;;;;5055362;28;20471;-85
2022/10/04 00:10:20;;;;;;;9.33;3.20;;;13.90;1.00;;;;;;5050603;28;20473;-86
2022/10/04 00:12:51;;;;;;;13.20;3.23;;;13.90;1.00;;;;;;5058300;28;20440;-85
2022/10/04 00:15:25;;;;;;;10.27;3.40;;;13.90;1.00;;;;;;5053422;28;20440;-85
2022/10/04 00:18:19;;;;;;;11.50;3.13;;;13.90;1.00;;;;;;5061459;28;20424;-85
2022/10/04 00:21:06;;;;;;;17.20;3.40;;;13.90;1.00;;;;;;5048867;28;20460;-79
2022/10/04 00:23:53;;;;;;;9.90;3.67;;;13.80;1.00;;;;;;5048290;28;21243;-80
2022/10/04 00:27:09;;;;;;;12.33;3.43;;;13.90;1.00;;;;;;5042683;28;20539;-80
2022/10/04 00:29:41;;;;;;;10.87;3.10;;;13.90;1.00;;;;;;4967121;28;20459;-79
2022/10/04 00:32:45;;;;;;;12.03;2.80;;;13.90;1.00;;;;;;5025729;28;20468;-78
2022/10/04 00:35:49;;;;;;;13.57;3.57;;;13.80;1.00;;;;;;5043109;28;20549;-80
2022/10/04 00:38:26;;;;;;;15.40;3.30;;;13.80;1.00;;;;;;5054790;28;20464;-78
2022/10/04 00:41:01;;;;;;;14.97;3.20;;;13.80;1.00;;;;;;5047411;28;20515;-77
2022/10/04 00:43:35;;;;;;;12.80;3.43;;;13.80;1.00;;;;;;5051361;28;20476;-80
2022/10/04 00:46:08;;;;;;;9.73;3.23;;;13.80;1.00;;;;;;5052049;28;20456;-77
2022/10/04 00:48:58;;;;;;;14.83;3.23;;;13.80;1.00;;;;;;5049912;28;20910;-80
2022/10/04 00:51:28;;;;;;;10.30;2.83;;;13.70;1.00;;;;;;5042930;28;20456;-78
2022/10/04 00:54:09;;;;;;;9.87;3.37;;;13.70;1.00;;;;;;5045795;28;20451;-80
2022/10/04 00:56:41;;;;;;;13.70;3.03;;;13.60;1.00;;;;;;5044249;28;20523;-80
2022/10/04 00:59:24;;;;;;;11.53;3.33;;;13.60;1.00;;;;;;5044965;28;20461;-80
2022/10/04 01:01:57;;;;;;;11.37;3.47;;;13.60;1.00;;;;;;5054097;28;20452;-77
2022/10/04 01:07:22;;;;;;;12.53;3.90;;;13.60;1.00;;;;;;5120099;22;20427;-84
2022/10/04 01:09:55;;;;;;;12.67;3.90;;;13.60;1.00;;;;;;5027125;28;20425;-85
2022/10/04 01:12:46;;;;;;;11.87;3.13;;;13.70;1.00;;;;;;5018528;28;20454;-84
2022/10/04 01:15:18;;;;;;;13.00;3.37;;;13.70;1.00;;;;;;5019816;28;20440;-86
2022/10/04 01:18:10;;;;;;;13.60;2.77;;;13.70;1.00;;;;;;5024932;28;20489;-82
2022/10/04 01:20:53;;;;;;;11.90;3.20;;;13.70;1.00;;;;;;4990078;28;20584;-83
2022/10/04 01:26:45;;;;;;;13.33;3.87;;;13.70;1.00;;;;;;5014863;28;20466;-84
2022/10/04 01:29:20;;;;;;;10.77;3.70;;;13.60;1.00;;;;;;5011668;28;20425;-84
2022/10/04 01:31:54;;;;;;;12.30;3.13;;;13.60;1.00;;;;;;5017207;28;20458;-84
2022/10/04 01:34:30;;;;;;;12.07;3.33;;;13.50;1.00;;;;;;5003080;28;20500;-85
2022/10/04 01:39:45;;;;;;;11.93;3.47;;;13.40;1.00;;;;;;5020578;28;20460;-84
2022/10/04 01:42:26;;;;;;;14.90;4.03;;;13.40;1.00;;;;;;5012666;28;20442;-82
2022/10/04 01:45:03;;;;;;;9.00;2.97;;;13.40;1.00;;;;;;4991966;28;20422;-85
2022/10/04 01:47:46;;;;;;;10.57;3.47;;;13.50;1.00;;;;;;5030880;28;20459;-85
2022/10/04 01:50:22;;;;;;;13.63;3.40;;;13.50;1.00;;;;;;5028404;28;20552;-85
2022/10/04 01:53:00;;;;;;;15.50;3.73;;;13.50;1.00;;;;;;5015072;28;20469;-85
2022/10/04 01:55:40;;;;;;;8.27;2.70;;;13.50;1.00;;;;;;5009493;28;20421;-84
2022/10/04 01:58:25;;;;;;;14.73;3.20;;;13.50;1.00;;;;;;5014224;28;20482;-84
2022/10/04 02:00:58;;;;;;;11.77;3.47;;;13.50;1.00;;;;;;5016931;28;20432;-82
2022/10/04 02:03:34;;;;;;;12.23;3.00;;;13.50;1.00;;;;;;4997298;28;20466;-86
2022/10/04 02:06:07;;;;;;;8.60;2.90;;;13.50;1.00;;;;;;5008657;28;20497;-82
2022/10/04 02:08:43;;;;;;;17.27;4.07;;;13.40;1.00;;;;;;4982384;28;20475;-85
2022/10/04 02:11:20;;;;;;;9.57;3.53;;;13.40;1.00;;;;;;5016243;28;20429;-85
2022/10/04 02:14:02;;;;;;;11.67;2.80;;;13.30;1.00;;;;;;5005781;28;20531;-87
2022/10/04 02:16:38;;;;;;;15.33;3.70;;;13.30;1.00;;;;;;4996823;28;20494;-85
2022/10/04 02:19:25;;;;;;;;;;;;;;;;;;;;;
2022/10/04 02:22:03;;;;;;;14.50;3.63;;;13.20;1.00;;;;;;4987196;28;50571;-83
2022/10/04 02:24:44;;;;;;;14.70;3.50;;;13.20;1.00;;;;;;5008802;28;20462;-84
2022/10/04 02:27:13;;;;;;;14.13;3.43;;;13.10;1.00;;;;;;5021441;28;20453;-84
2022/10/04 02:29:51;;;;;;;11.17;2.97;;;13.10;1.00;;;;;;5026592;28;20440;-83
2022/10/04 02:35:13;;;;;;;11.60;3.67;;;13.00;1.00;;;;;;5034173;28;20469;-84
2022/10/04 02:38:01;;;;;;;10.27;3.90;;;13.00;1.00;;;;;;5000182;28;20424;-84
2022/10/04 02:41:11;;;;;;;11.50;3.20;;;12.90;1.00;;;;;;5002309;28;20469;-82
2022/10/04 02:44:00;;;;;;;10.87;3.03;;;12.90;1.00;;;;;;4996206;28;20447;-84
2022/10/04 02:46:41;;;;;;;9.57;2.87;;;12.90;1.00;;;;;;4998237;28;20518;-84
2022/10/04 02:49:31;;;;;;;12.33;2.83;;;12.70;1.00;;;;;;5012566;28;20452;-84
2022/10/04 02:52:05;;;;;;;17.10;5.00;;;12.70;1.00;;;;;;5015218;28;20471;-88
2022/10/04 02:55:02;;;;;;;12.27;3.43;;;12.70;1.00;;;;;;5008683;28;20494;-84
2022/10/04 02:57:42;;;;;;;10.73;3.40;;;12.70;1.00;;;;;;5006978;28;20410;-84
2022/10/04 03:00:28;;;;;;;14.70;3.00;;;12.80;1.00;;;;;;5022430;28;20501;-84
2022/10/04 03:03:24;;;;;;;10.37;3.43;;;12.80;1.00;;;;;;5030982;28;20498;-83
2022/10/04 03:06:16;;;;;;;;;;;;;;;;;;;;;
2022/10/04 03:08:53;;;;;;;9.33;2.77;;;12.90;1.00;;;;;;4998627;28;52121;-82
2022/10/04 03:11:41;;;;;;;8.73;2.73;;;12.90;1.00;;;;;;5005645;28;20497;-84
2022/10/04 03:14:17;;;;;;;13.57;3.13;;;12.90;1.00;;;;;;5019670;28;20473;-84
2022/10/04 03:16:55;;;;;;;7.70;2.80;;;12.80;1.00;;;;;;5014978;28;20533;-84
2022/10/04 03:19:27;;;;;;;10.17;3.70;;;12.80;1.00;;;;;;4998642;28;20502;-83
2022/10/04 03:22:23;;;;;;;10.53;3.27;;;12.70;1.00;;;;;;5007846;28;20559;-83
2022/10/04 03:25:11;;;;;;;12.33;3.47;;;12.70;1.00;;;;;;5018686;28;20561;-84
2022/10/04 03:27:52;;;;;;;13.60;3.70;;;12.70;1.00;;;;;;4999653;28;20490;-86
2022/10/04 03:30:25;;;;;;;11.20;3.50;;;12.60;1.00;;;;;;5007327;28;20449;-81
2022/10/04 03:32:56;;;;;;;15.73;4.00;;;12.60;1.00;;;;;;5039967;28;20421;-85
2022/10/04 03:35:44;;;;;;;14.93;4.20;;;12.70;1.00;;;;;;5016275;28;20474;-83
2022/10/04 03:38:15;;;;;;;14.20;3.80;;;12.70;1.00;;;;;;5015272;28;20531;-85
2022/10/04 03:40:50;;;;;;;13.90;4.00;;;12.60;1.00;;;;;;4999068;28;20534;-83
2022/10/04 03:43:24;;;;;;;16.07;4.13;;;12.60;1.00;;;;;;4993485;28;20598;-81
2022/10/04 03:45:52;;;;;;;15.60;3.40;;;12.60;1.00;;;;;;5015168;28;20470;-81
2022/10/04 03:48:29;;;;;;;11.23;3.97;;;12.60;1.00;;;;;;5032766;28;21251;-81
2022/10/04 03:50:58;;;;;;;10.67;4.13;;;12.60;1.00;;;;;;5029363;28;20814;-83
2022/10/04 03:53:30;;;;;;;14.90;4.43;;;12.60;1.00;;;;;;5026398;28;20445;-82
2022/10/04 03:55:58;;;;;;;15.73;5.23;;;12.50;1.00;;;;;;5026928;28;20466;-82
2022/10/04 03:58:28;;;;;;;14.90;4.43;;;12.60;1.00;;;;;;5030307;28;20461;-80
2022/10/04 04:01:04;;;;;;;14.47;4.40;;;12.60;1.00;;;;;;5027066;28;20511;-80
2022/10/04 04:04:03;;;;;;;17.10;3.60;;;12.60;1.00;;;;;;5022616;28;21208;-81
2022/10/04 04:06:40;;;;;;;14.70;4.20;;;12.60;1.00;;;;;;5027549;28;20478;-82
2022/10/04 04:09:09;;;;;;;12.23;4.00;;;12.50;1.00;;;;;;5029492;28;20453;-81
2022/10/04 04:11:36;;;;;;;16.37;4.63;;;12.50;1.00;;;;;;5030222;28;20489;-81
2022/10/04 04:14:08;;;;;;;15.07;4.40;;;12.50;1.00;;;;;;5034553;28;20475;-80
2022/10/04 04:16:37;;;;;;;13.80;4.77;;;12.50;1.00;;;;;;5034522;28;21205;-81
2022/10/04 04:19:14;;;;;;;12.53;4.13;;;12.60;1.00;;;;;;5029980;28;21256;-81
2022/10/04 04:21:42;;;;;;;16.77;5.07;;;12.50;1.00;;;;;;5017194;28;20469;-81
2022/10/04 04:24:17;;;;;;;12.30;4.53;;;12.60;1.00;;;;;;5016197;28;20481;-81
2022/10/04 04:26:47;;;;;;;13.73;5.03;;;12.70;1.00;;;;;;5026554;28;20469;-81
2022/10/04 04:29:21;;;;;;;15.37;3.80;;;12.60;1.00;;;;;;5030737;28;20442;-81
2022/10/04 04:31:53;;;;;;;14.90;4.20;;;12.60;1.00;;;;;;5030512;28;20472;-82
2022/10/04 04:34:23;;;;;;;11.90;4.30;;;12.50;1.00;;;;;;5029962;28;20446;-82
2022/10/04 04:36:51;;;;;;;12.53;4.13;;;12.40;1.00;;;;;;5022172;28;20505;-82
2022/10/04 04:39:36;;;;;;;11.57;4.30;;;12.40;1.00;;;;;;5020076;28;20457;-82
2022/10/04 04:42:07;;;;;;;14.23;4.40;;;12.30;1.00;;;;;;5032599;28;20519;-82
2022/10/04 04:44:34;;;;;;;13.10;4.63;;;12.30;1.00;;;;;;5028700;28;20467;-82
2022/10/04 04:47:01;;;;;;;12.60;4.07;;;12.20;1.00;;;;;;5035571;28;20438;-82
2022/10/04 04:49:31;;;;;;;11.17;3.50;;;12.20;1.00;;;;;;5028066;28;20461;-82
2022/10/04 04:51:58;;;;;;;14.80;6.30;;;12.20;1.00;;;;;;5027492;28;20462;-83
2022/10/04 04:54:28;;;;;;;14.03;4.10;;;12.20;1.00;;;;;;5029005;28;20462;-84
2022/10/04 04:56:56;;;;;;;13.30;3.50;;;12.10;1.00;;;;;;5027760;28;21105;-83
2022/10/04 04:59:25;;;;;;;14.87;4.33;;;12.00;1.00;;;;;;5023123;28;20468;-82
2022/10/04 05:01:52;;;;;;;13.60;3.60;;;12.00;1.00;;;;;;5024638;28;20445;-84
2022/10/04 05:04:23;;;;;;;12.23;4.13;;;12.10;1.00;;;;;;5028331;28;20476;-82
2022/10/04 05:07:02;;;;;;;12.40;4.70;;;12.10;1.00;;;;;;5028463;28;21354;-82
2022/10/04 05:09:32;;;;;;;13.50;4.40;;;12.00;1.00;;;;;;5014862;28;20458;-83
2022/10/04 05:12:06;;;;;;;13.33;4.40;;;12.00;1.00;;;;;;5011681;28;20461;-83
2022/10/04 05:14:34;;;;;;;15.90;4.83;;;12.00;1.00;;;;;;5025093;28;20488;-81
2022/10/04 05:17:01;;;;;;;17.37;4.13;;;12.00;1.00;;;;;;5028977;28;20472;-83
2022/10/04 05:19:32;;;;;;;13.17;3.90;;;12.00;1.00;;;;;;5029912;28;20536;-84
2022/10/04 05:22:07;;;;;;;12.57;3.70;;;12.00;1.00;;;;;;5027568;28;20882;-83
2022/10/04 05:24:37;;;;;;;12.57;3.87;;;12.00;1.00;;;;;;5025575;28;20540;-83
2022/10/04 05:27:07;;;;;;;15.20;5.00;;;12.00;1.00;;;;;;5030088;28;20501;-85
2022/10/04 05:29:39;;;;;;;17.80;4.23;;;12.00;1.00;;;;;;5029036;28;20515;-84
2022/10/04 05:32:19;;;;;;;14.47;4.93;;;12.00;1.00;;;;;;5028559;28;20465;-85
2022/10/04 05:34:52;;;;;;;15.00;4.77;;;12.10;1.00;;;;;;5026873;28;20454;-84
2022/10/04 05:37:47;;;;;;;11.70;4.33;;;12.10;1.00;;;;;;5031447;28;21258;-80
2022/10/04 05:40:33;;;;;;;16.97;4.77;;;12.10;1.00;;;;;;5028937;28;20480;-85
2022/10/04 05:42:59;;;;;;;14.17;4.03;;;12.10;1.00;;;;;;5030671;28;20577;-85
2022/10/04 05:45:27;;;;;;;17.37;4.93;;;12.20;1.00;;;;;;5028209;28;20833;-83
2022/10/04 05:47:57;;;;;;;15.27;4.60;;;12.30;1.00;;;;;;5012778;28;20438;-84
2022/10/04 05:50:39;;;;;;;14.83;4.50;;;12.40;1.00;;;;;;5029553;28;20431;-85
2022/10/04 05:53:23;;;;;;;13.43;3.33;;;12.50;1.00;;;;;;5031911;28;20459;-85
2022/10/04 05:55:58;;;;;;;13.40;4.90;;;12.50;1.00;;;;;;5026383;28;20434;-85
2022/10/04 05:58:47;;;;;;;16.57;3.93;;;12.60;1.00;;;;;;5029136;28;20469;-84
2022/10/04 06:01:28;;;;;;;13.87;4.20;;;12.70;1.00;;;;;;5035998;28;20457;-85
2022/10/04 06:04:12;;;;;;;18.33;4.13;;;12.80;1.00;;;;;;5030338;28;20417;-86
2022/10/04 06:06:48;;;;;;;15.20;4.20;;;12.80;1.00;;;;;;5014911;28;20472;-82
2022/10/04 06:09:28;;;;;;;12.27;3.50;;;12.90;1.00;;;;;;5029292;28;21200;-83
2022/10/04 06:12:02;;;;;;;14.50;4.00;;;12.90;1.00;;;;;;5030712;28;20429;-84
2022/10/04 06:14:57;;;;;;;13.83;4.03;;;13.10;1.00;;;;;;5031171;28;20458;-84
2022/10/04 06:17:52;;;;;;;15.40;4.40;;;13.20;1.00;;;;;;5036693;28;20416;-82
2022/10/04 06:20:50;;;;;;;15.40;3.40;;;13.40;1.00;;;;;;5028666;28;20890;-80
2022/10/04 06:23:19;;;;;;;12.30;3.83;;;13.60;1.00;;;;;;5027569;28;20457;-81
2022/10/04 06:25:57;;;;;;;19.80;4.50;;;13.70;1.00;;;;;;5033230;28;20976;-81
2022/10/04 06:28:30;;;;;;;20.63;4.37;;;13.80;1.00;;;;;;5034981;28;20466;-81
2022/10/04 06:31:55;;;;;;;14.67;4.40;;;13.90;1.00;;;;;;5037335;28;21350;-83
2022/10/04 06:34:44;;;;;;;15.00;3.67;;;14.10;1.00;;;;;;5029623;28;20434;-81
2022/10/04 06:37:42;;;;;;;10.77;3.47;;;14.10;1.00;;;;;;5031654;28;20426;-81
2022/10/04 06:40:35;;;;;;;10.47;3.50;;;14.10;1.00;;;;;;5038738;28;20441;-82
2022/10/04 06:43:23;;;;;;;13.00;3.67;;;14.20;1.00;;;;;;5039315;28;20476;-82
2022/10/04 06:46:03;;;;;;;12.60;3.67;;;14.20;1.00;;;;;;5010218;28;20450;-81
2022/10/04 06:49:06;;;;;;;13.23;3.87;;;14.30;1.00;;;;;;5031544;28;20569;-80
2022/10/04 06:52:26;;;;;;;10.50;3.30;;;14.50;1.00;;;;;;5029136;28;20462;-81
2022/10/04 06:55:30;;;;;;;12.20;3.60;;;14.60;1.00;;;;;;4952696;28;20473;-80
2022/10/04 06:58:20;;;;;;;12.07;4.30;;;14.70;1.00;;;;;;4900385;28;20604;-81
2022/10/04 07:00:56;;;;;;;10.80;3.33;;;14.60;1.00;;;;;;5027098;28;20482;-80
2022/10/04 07:03:30;;;;;;;11.97;3.40;;;14.50;1.00;;;;;;5025848;28;20476;-80
2022/10/04 07:06:02;;;;;;;9.17;3.20;;;14.50;1.00;;;;;;5031680;28;20463;-82
2022/10/04 07:08:37;;;;;;;13.60;3.67;;;14.50;1.00;;;;;;5024454;28;20422;-80
2022/10/04 07:11:13;;;;;;;15.07;3.47;;;14.50;1.00;;;;;;5026739;28;20426;-80
2022/10/04 07:13:49;;;;;;;18.07;6.37;;;14.50;1.00;;;;;;5026402;28;20422;-80
2022/10/04 07:16:29;;;;;;;15.70;3.90;;;14.40;1.00;;;;;;5024839;28;20421;-80
2022/10/04 07:19:08;;;;;;;13.37;2.80;;;14.50;1.00;;;;;;5013872;28;20448;-80
2022/10/04 07:21:41;;;;;;;12.57;4.10;;;14.50;1.00;;;;;;5027008;28;20517;-80
2022/10/04 07:24:12;;;;;;;12.80;3.70;;;14.50;1.00;;;;;;5028506;28;20454;-81
2022/10/04 07:26:45;;;;;;;11.77;3.87;;;14.50;1.00;;;;;;5031681;28;20517;-80
2022/10/04 07:29:19;;;;;;;13.80;3.70;;;14.50;1.00;;;;;;5027309;28;20438;-80
2022/10/04 07:31:48;;;;;;;13.90;3.97;;;14.60;1.00;;;;;;5027643;28;20429;-80
2022/10/04 07:34:18;;;;;;;10.73;3.50;;;14.70;1.00;;;;;;5023657;28;20486;-80
2022/10/04 07:36:51;;;;;;;13.73;4.43;;;14.80;1.00;;;;;;5017918;28;20466;-82
2022/10/04 07:39:21;;;;;;;13.00;3.80;;;14.90;1.00;;;;;;5030339;28;20457;-80
2022/10/04 07:41:56;;;;;;;12.47;3.80;;;15.00;1.00;;;;;;5027722;28;20427;-79
2022/10/04 07:44:35;;;;;;;13.30;4.20;;;15.00;1.00;;;;;;5028668;28;20426;-81
2022/10/04 07:47:09;;;;;;;12.97;4.30;;;14.90;1.00;;;;;;5031420;28;20473;-82
2022/10/04 07:49:44;;;;;;;12.17;4.03;;;14.80;1.00;;;;;;5031963;28;20437;-81
2022/10/04 07:52:41;;;;;;;11.13;3.47;;;14.90;1.00;;;;;;5031464;28;20611;-80
2022/10/04 07:55:21;;;;;;;12.13;3.90;;;14.90;1.00;;;;;;5032374;28;20420;-79
2022/10/04 07:57:57;;;;;;;13.00;4.03;;;14.90;1.00;;;;;;5030514;28;20429;-81
2022/10/04 08:00:31;;;;;;;12.23;4.70;;;14.90;1.00;;;;;;5018675;28;20448;-80
2022/10/04 08:03:17;;;;;;;11.73;4.17;;;14.90;1.00;;;;;;5019702;28;20430;-80
2022/10/04 08:05:50;;;;;;;14.33;5.03;;;15.00;1.00;;;;;;4999879;28;20449;-80
2022/10/04 08:08:42;;;;;;;12.97;5.00;;;15.10;1.00;;;;;;5023711;28;20476;-80
2022/10/04 08:11:26;;;;;;;13.80;4.63;;;15.20;1.00;;;;;;5032265;28;20469;-81
2022/10/04 08:14:03;;;;;;;12.93;5.23;;;15.20;1.00;;;;;;5013633;28;20446;-80
2022/10/04 08:16:37;;;;;;;14.93;6.20;;;15.30;1.00;;;;;;5029438;28;20551;-80
2022/10/04 08:19:26;;;;;;;11.70;3.90;;;15.30;1.00;;;;;;5033354;28;20477;-81
2022/10/04 08:22:05;;;;;;;12.20;5.20;;;15.20;1.00;;;;;;5032802;28;20964;-81
2022/10/04 08:24:50;;;;;;;15.43;5.63;;;15.20;1.00;;;;;;5023951;28;20473;-81
2022/10/04 08:30:44;;;;;;;12.40;4.40;;;15.10;1.00;;;;;;5027804;28;20445;-81
2022/10/04 08:33:28;;;;;;;11.33;4.83;;;15.20;1.00;;;;;;5028759;28;20498;-80
2022/10/04 08:36:05;;;;;;;14.03;5.53;;;15.50;1.00;;;;;;5014810;28;20452;-82
2022/10/04 08:38:47;;;;;;;13.97;5.70;;;15.90;1.00;;;;;;5025481;28;20477;-82
2022/10/04 08:42:03;;;;;;;14.93;8.87;;;16.10;1.00;;;;;;5028164;28;20513;-80
2022/10/04 08:45:16;;;;;;;14.83;5.23;;;16.50;1.00;;;;;;4949724;28;20464;-82
2022/10/04 08:48:23;;;;;;;11.73;4.73;;;16.80;1.00;;;;;;4898244;28;20499;-81
2022/10/04 08:51:24;;;;;;;12.67;5.30;;;16.70;1.00;;;;;;4950391;28;20524;-80
2022/10/04 08:54:22;;;;;;;12.50;5.27;;;16.60;1.00;;;;;;5011537;28;20523;-80
2022/10/04 08:57:16;;;;;;;11.87;5.67;;;16.50;1.00;;;;;;5027401;28;20944;-81
2022/10/04 09:00:29;;;;;;;12.50;5.40;;;16.30;1.00;;;;;;4992369;28;20434;-81
2022/10/04 09:03:34;;;;;;;11.77;5.80;;;16.30;1.00;;;;;;5034836;28;20454;-80
2022/10/04 09:06:22;;;;;;;10.83;5.67;;;16.50;1.00;;;;;;5036507;28;20472;-80
2022/10/04 09:09:39;;;;;;;11.33;5.77;;;16.80;1.00;;;;;;5030270;28;20553;-80
2022/10/04 09:12:28;;;;;;;15.10;5.83;;;17.00;1.00;;;;;;5030139;28;20525;-79
2022/10/04 09:15:13;;;;;;;16.23;7.67;;;17.20;1.00;;;;;;5031274;28;20605;-79
2022/10/04 09:17:53;;;;;;;17.13;8.80;;;17.40;1.00;;;;;;5031512;28;20445;-79
2022/10/04 09:20:32;;;;;;;15.07;5.53;;;17.60;1.00;;;;;;5023856;28;20465;-80
2022/10/04 09:23:16;;;;;;;10.23;5.27;;;17.70;1.00;;;;;;5035917;28;20529;-79
2022/10/04 09:26:05;;;;;;;13.20;6.03;;;18.70;1.00;;;;;;5033466;28;21144;-79
2022/10/04 09:29:13;;;;;;;10.73;5.00;;;20.40;1.00;;;;;;5032713;28;20581;-79
2022/10/04 09:32:26;;;;;;;16.77;8.30;;;20.40;1.00;;;;;;5017644;28;20523;-81
2022/10/04 09:35:20;;;;;;;9.10;5.20;;;20.60;1.00;;;;;;5028951;28;20477;-80
2022/10/04 09:38:17;;;;;;;8.87;4.07;;;20.70;1.00;;;;;;4990724;28;21128;-81
2022/10/04 09:41:02;;;;;;;8.57;3.77;;;20.90;1.00;;;;;;5024895;28;20430;-79
2022/10/04 09:44:05;;;;;;;9.77;3.60;;;20.50;1.00;;;;;;5006589;28;20430;-81
2022/10/04 09:47:02;;;;;;;8.87;3.97;;;19.90;1.00;;;;;;5015202;28;21245;-80
2022/10/04 09:49:50;;;;;;;8.77;3.03;;;19.70;1.00;;;;;;5019929;28;20462;-81
2022/10/04 09:52:31;;;;;;;10.00;4.47;;;19.60;1.00;;;;;;5034422;28;20465;-82
2022/10/04 09:55:13;;;;;;;10.23;4.03;;;19.70;1.00;;;;;;5033004;28;20458;-79
2022/10/04 09:57:52;;;;;;;10.17;4.33;;;19.90;1.00;;;;;;5021136;28;20464;-80
2022/10/04 10:00:24;;;;;;;10.40;3.60;;;20.00;1.00;;;;;;5005336;28;20513;-79
2022/10/04 10:03:16;;;;;;;11.17;4.23;;;20.10;1.00;;;;;;5002646;28;20470;-79
2022/10/04 10:06:07;;;;;;;10.60;4.30;;;20.10;1.00;;;;;;5019061;28;20888;-81
2022/10/04 10:08:48;;;;;;;9.40;4.03;;;20.30;1.00;;;;;;4975527;28;20550;-81
2022/10/04 10:14:33;;;;;;;7.60;3.40;;;20.70;1.00;;;;;;5028211;28;20478;-80
2022/10/04 10:17:14;;;;;;;15.27;12.93;;;22.20;1.00;;;;;;5023162;28;20450;-81
2022/10/04 10:20:16;;;;;;;8.10;2.80;;;22.90;1.00;;;;;;5026846;28;20445;-82
2022/10/04 10:23:10;;;;;;;9.23;3.60;;;23.40;1.00;;;;;;5022580;28;20471;-84
2022/10/04 10:25:50;;;;;;;7.10;3.43;;;23.50;1.00;;;;;;5027194;28;20718;-80
2022/10/04 10:28:33;;;;;;;7.27;2.73;;;23.10;1.00;;;;;;5031308;28;20509;-81
2022/10/04 10:31:20;;;;;;;8.10;2.90;;;22.80;1.00;;;;;;5031105;28;20434;-85
2022/10/04 10:34:33;;;;;;;7.40;2.97;;;22.50;1.00;;;;;;5033232;28;20430;-85
2022/10/04 10:37:12;;;;;;;8.90;4.33;;;22.20;1.00;;;;;;4994622;28;20478;-84
2022/10/04 10:40:13;;;;;;;7.20;3.00;;;21.90;1.00;;;;;;5028277;28;20447;-84
2022/10/04 10:43:03;;;;;;;7.00;2.27;;;22.00;1.00;;;;;;5008357;28;20923;-80
2022/10/04 10:45:44;;;;;;;7.20;2.93;;;22.30;1.00;;;;;;5028244;28;20414;-82
2022/10/04 10:48:18;;;;;;;7.00;2.60;;;22.50;1.00;;;;;;5031682;28;20437;-84
2022/10/04 10:51:01;;;;;;;8.13;3.27;;;22.50;1.00;;;;;;5016037;28;20397;-86
2022/10/04 10:54:26;;;;;;;12.93;5.70;;;22.30;1.00;;;;;;5033210;28;21250;-83
2022/10/04 10:57:07;;;;;;;9.30;3.53;;;22.10;1.00;;;;;;5032619;28;20458;-84
2022/10/04 11:00:18;;;;;;;7.83;3.10;;;22.90;1.00;;;;;;5036191;28;20452;-84
2022/10/04 11:03:40;;;;;;;12.17;3.80;;;24.70;1.00;;;;;;4995960;28;20448;-83
2022/10/04 11:06:16;;;;;;;7.60;2.80;;;24.70;1.00;;;;;;5033153;28;20656;-82
2022/10/04 11:09:13;;;;;;;9.30;3.43;;;24.50;1.00;;;;;;5030847;28;20409;-83
2022/10/04 11:12:15;;;;;;;6.40;2.67;;;25.30;1.00;;;;;;5033754;28;20854;-84
2022/10/04 11:15:24;;;;;;;7.80;3.00;;;25.40;1.00;;;;;;5032399;28;20433;-84
2022/10/04 11:18:15;;;;;;;11.10;3.93;;;25.50;1.00;;;;;;5033399;28;20450;-84
2022/10/04 11:21:24;;;;;;;9.53;3.07;;;25.00;1.00;;;;;;5034346;28;20446;-85
2022/10/04 11:24:33;;;;;;;6.90;2.30;;;25.90;1.00;;;;;;5025733;28;20535;-84
2022/10/04 11:27:11;;;;;;;8.03;3.53;;;27.30;1.00;;;;;;5029147;28;20456;-82
2022/10/04 11:29:55;;;;;;;6.70;2.67;;;26.20;1.00;;;;;;5031458;28;20469;-84
2022/10/04 11:33:04;;;;;;;10.27;3.60;;;25.00;1.00;;;;;;5028666;28;20437;-81
2022/10/04 11:36:15;;;;;;;9.30;3.57;;;23.90;1.00;;;;;;5030782;28;20445;-79
2022/10/04 11:39:00;;;;;;;6.80;2.70;;;22.70;1.00;;;;;;5028662;28;20452;-79
2022/10/04 11:41:39;;;;;;;9.07;2.67;;;22.30;1.00;;;;;;5006665;28;20437;-81
2022/10/04 11:44:43;;;;;;;7.97;3.30;;;22.30;1.00;;;;;;5026820;28;20441;-85
2022/10/04 11:47:24;;;;;;;8.47;3.17;;;23.00;1.00;;;;;;5029804;28;20475;-86
2022/10/04 11:50:04;;;;;;;8.50;3.20;;;22.70;1.00;;;;;;5027971;28;20555;-82
2022/10/04 11:53:02;;;;;;;9.13;3.73;;;22.20;1.00;;;;;;5031136;28;20451;-82
2022/10/04 11:56:08;;;;;;;13.57;3.77;;;22.10;1.00;;;;;;5028992;28;20543;-85
2022/10/04 11:58:52;;;;;;;11.67;4.40;;;22.10;1.00;;;;;;5028040;28;20525;-85
2022/10/04 12:01:42;;;;;;;8.53;2.80;;;23.80;1.00;;;;;;5028434;28;20468;-86
2022/10/04 12:04:41;;;;;;;8.40;3.67;;;24.40;1.00;;;;;;4987112;28;21350;-86
2022/10/04 12:07:38;;;;;;;10.77;4.60;;;24.00;1.00;;;;;;4991890;28;20474;-86
2022/10/04 12:10:22;;;;;;;8.90;3.00;;;23.60;1.00;;;;;;5027344;28;20476;-85
2022/10/04 12:13:32;;;;;;;9.63;3.10;;;23.20;1.00;;;;;;5028883;28;20449;-84
2022/10/04 12:16:14;;;;;;;7.93;2.90;;;22.50;1.00;;;;;;5020240;28;20444;-85
2022/10/04 12:22:01;;;;;;;10.10;3.17;;;22.90;1.00;;;;;;5024840;28;20465;-81
2022/10/04 12:25:08;;;;;;;9.97;3.60;;;22.80;1.00;;;;;;5025782;28;20427;-83
2022/10/04 12:28:11;;;;;;;8.07;2.70;;;22.60;1.00;;;;;;5026068;28;20463;-84
2022/10/04 12:30:56;;;;;;;11.33;3.27;;;22.50;1.00;;;;;;5032754;28;20476;-80
2022/10/04 12:33:38;;;;;;;7.40;2.53;;;22.90;1.00;;;;;;5027799;28;20571;-82
2022/10/04 12:36:19;;;;;;;8.30;2.70;;;23.20;1.00;;;;;;5029828;28;20471;-83
2022/10/04 12:39:04;;;;;;;9.43;3.00;;;23.50;1.00;;;;;;5024634;28;20426;-85
2022/10/04 12:41:43;;;;;;;8.87;2.83;;;23.40;1.00;;;;;;5022559;28;20890;-82
2022/10/04 12:44:24;;;;;;;7.43;2.63;;;23.00;1.00;;;;;;5023849;28;21893;-80
2022/10/04 12:47:04;;;;;;;8.33;3.57;;;22.40;1.00;;;;;;5025172;28;20485;-81
2022/10/04 12:49:41;;;;;;;7.93;2.90;;;21.90;1.00;;;;;;5026338;28;20449;-82
2022/10/04 12:52:19;;;;;;;10.47;3.70;;;21.60;1.00;;;;;;5037493;28;20405;-83
2022/10/04 12:55:01;;;;;;;12.40;3.13;;;21.60;1.00;;;;;;5008870;28;20444;-82
2022/10/04 12:57:50;;;;;;;8.67;3.27;;;21.50;1.00;;;;;;5028473;28;20427;-82
2022/10/04 13:00:21;;;;;;;10.47;4.23;;;21.30;1.00;;;;;;5022100;28;20473;-83
2022/10/04 13:03:21;;;;;;;8.90;2.27;;;21.40;1.00;;;;;;5023412;28;20453;-82
2022/10/04 13:06:03;;;;;;;12.60;2.40;;;21.50;1.00;;;;;;5032757;28;20461;-83
2022/10/04 13:08:48;;;;;;;11.23;3.27;;;21.40;1.00;;;;;;5005991;28;21012;-82
2022/10/04 13:11:33;;;;;;;11.07;6.57;;;21.20;1.00;;;;;;5026783;28;20462;-82
2022/10/04 13:14:43;;;;;;;8.67;3.20;;;21.40;1.00;;;;;;5029393;28;20517;-83
2022/10/04 13:17:25;;;;;;;8.90;2.90;;;21.40;1.00;;;;;;5013682;28;20531;-81
2022/10/04 13:20:27;;;;;;;9.00;3.30;;;21.50;1.00;;;;;;5029837;28;20460;-84
2022/10/04 13:22:58;;;;;;;11.90;3.37;;;21.60;1.00;;;;;;5025353;28;20494;-81
2022/10/04 13:25:56;;;;;;;8.77;3.50;;;21.70;1.00;;;;;;5024450;28;20460;-80
2022/10/04 13:28:30;;;;;;;7.07;1.90;;;21.80;1.00;;;;;;4997653;28;20469;-81
2022/10/04 13:31:03;;;;;;;7.33;2.47;;;21.80;1.00;;;;;;5020243;28;20453;-80
2022/10/04 13:33:40;;;;;;;8.87;2.50;;;21.70;1.00;;;;;;5023923;28;21288;-81
2022/10/04 13:36:19;;;;;;;8.70;2.93;;;21.50;1.00;;;;;;5029224;28;20409;-81
2022/10/04 13:39:16;;;;;;;9.43;5.80;;;21.50;1.00;;;;;;5025508;28;20488;-82
2022/10/04 13:42:14;;;;;;;8.27;2.70;;;21.60;1.00;;;;;;5021368;28;20560;-81
2022/10/04 13:45:16;;;;;;;9.97;3.47;;;21.60;1.00;;;;;;5024407;28;20893;-80
2022/10/04 13:48:21;;;;;;;7.23;2.27;;;21.90;1.00;;;;;;5004605;28;20475;-80
2022/10/04 13:51:23;;;;;;;8.80;2.67;;;22.00;1.00;;;;;;5016476;28;20440;-84
2022/10/04 13:57:18;;;;;;;9.67;2.70;;;21.90;1.00;;;;;;4971896;28;20504;-82
2022/10/04 13:59:51;;;;;;;8.53;2.80;;;22.00;1.00;;;;;;5018251;28;20449;-82
2022/10/04 14:03:02;;;;;;;6.73;2.00;;;21.90;1.00;;;;;;5029246;28;20892;-82
2022/10/04 14:06:10;;;;;;;9.93;3.07;;;21.70;1.00;;;;;;5028489;28;20566;-83
2022/10/04 14:08:58;;;;;;;9.57;3.40;;;21.50;1.00;;;;;;5030340;28;20471;-83
2022/10/04 14:12:04;;;;;;;7.57;3.13;;;21.20;1.00;;;;;;5012950;28;20445;-82
2022/10/04 14:15:03;;;;;;;8.27;2.67;;;21.20;1.00;;;;;;5023663;28;20445;-80
2022/10/04 14:18:12;;;;;;;7.10;2.43;;;21.20;1.00;;;;;;5025335;28;21365;-83
2022/10/04 14:21:21;;;;;;;8.90;2.57;;;21.10;1.00;;;;;;5030099;28;20552;-83
2022/10/04 14:24:35;;;;;;;7.23;1.90;;;21.00;1.00;;;;;;5009089;28;21116;-80
2022/10/04 14:27:32;;;;;;;7.00;1.93;;;21.00;1.00;;;;;;5028977;28;20468;-82
2022/10/04 14:30:11;;;;;;;5.37;2.03;;;21.10;1.00;;;;;;5030374;28;20442;-81
2022/10/04 14:33:16;;;;;;;10.70;3.13;;;20.80;1.00;;;;;;5030066;28;20472;-81
2022/10/04 14:35:51;;;;;;;5.70;1.70;;;20.80;1.00;;;;;;5029817;28;20513;-83
2022/10/04 14:38:42;;;;;;;8.07;2.27;;;20.80;1.00;;;;;;5013024;28;21062;-84
2022/10/04 14:41:45;;;;;;;7.20;2.07;;;20.60;1.00;;;;;;5031819;28;20907;-80
2022/10/04 14:44:49;;;;;;;8.40;2.40;;;20.40;1.00;;;;;;5014090;28;20461;-82
2022/10/04 14:47:41;;;;;;;6.67;2.33;;;20.10;1.00;;;;;;4995761;28;20464;-81